createdAt,value
2022-10-06T00:00:26.935Z,11.75
2022-10-06T00:02:55.021Z,6.07
2022-10-06T00:05:23.221Z,4.47
2022-10-06T00:07:52.618Z,5.78
2022-10-06T00:10:20.640Z,4.72
2022-10-06T00:12:49.809Z,5.53
2022-10-06T00:15:18.924Z,5.07
2022-10-06T00:17:46.991Z,5.90
2022-10-06T00:20:15.081Z,7.00
2022-10-06T00:22:44.713Z,6.90
2022-10-06T00:25:16.072Z,8.98
2022-10-06T00:27:45.058Z,5.50
2022-10-06T00:30:14.965Z,6.53
2022-10-06T00:32:43.022Z,6.05
2022-10-06T00:35:11.160Z,5.70
2022-10-06T00:37:39.250Z,8.10
2022-10-06T00:40:09.849Z,4.28
2022-10-06T00:42:54.525Z,5.68
2022-10-06T00:45:25.293Z,8.82
2022-10-06T00:47:53.754Z,4.63
2022-10-06T00:50:21.939Z,4.47
2022-10-06T00:52:50.123Z,4.88
2022-10-06T00:55:20.220Z,4.32
2022-10-06T00:57:48.606Z,4.95
2022-10-06T01:00:18.311Z,4.78
2022-10-06T01:02:47.785Z,5.82
2022-10-06T01:05:21.946Z,5.00
2022-10-06T01:07:50.001Z,5.38
2022-10-06T01:10:18.166Z,4.63
2022-10-06T01:12:46.217Z,4.35
2022-10-06T01:15:14.532Z,5.32
2022-10-06T01:17:45.705Z,4.95
2022-10-06T01:20:14.763Z,5.80
2022-10-06T01:22:45.490Z,6.13
2022-10-06T01:25:14.332Z,4.70
2022-10-06T01:27:44.149Z,4.35
2022-10-06T01:30:16.967Z,5.93
2022-10-06T01:32:45.741Z,8.45
2022-10-06T01:35:13.883Z,5.93
2022-10-06T01:37:41.978Z,4.25
2022-10-06T01:40:12.272Z,4.50
2022-10-06T01:42:40.326Z,3.78
2022-10-06T01:45:09.135Z,6.10
2022-10-06T01:47:37.174Z,4.90
2022-10-06T01:50:07.144Z,3.80
2022-10-06T01:52:36.129Z,6.10
2022-10-06T01:55:04.304Z,4.15
2022-10-06T01:57:38.981Z,4.10
2022-10-06T02:00:08.794Z,5.45
2022-10-06T02:02:40.820Z,3.90
2022-10-06T02:05:09.274Z,4.25
2022-10-06T02:07:40.548Z,5.00
2022-10-06T02:10:09.602Z,5.97
2022-10-06T02:12:39.272Z,3.92
2022-10-06T02:15:11.108Z,4.20
2022-10-06T02:17:40.011Z,3.92
2022-10-06T02:20:08.423Z,4.80
2022-10-06T02:22:39.042Z,3.97
2022-10-06T02:25:07.617Z,4.78
2022-10-06T02:27:35.802Z,4.93
2022-10-06T02:30:06.182Z,5.15
2022-10-06T02:32:35.667Z,4.45
2022-10-06T02:35:04.844Z,7.40
2022-10-06T02:37:32.967Z,4.28
2022-10-06T02:40:02.829Z,5.22
2022-10-06T02:42:32.570Z,3.67
2022-10-06T02:45:01.117Z,6.32
2022-10-06T02:47:32.627Z,4.30
2022-10-06T02:50:01.971Z,5.32
2022-10-06T02:52:34.647Z,4.82
2022-10-06T02:55:04.228Z,4.47
2022-10-06T02:57:32.517Z,3.78
2022-10-06T03:00:01.474Z,3.95
2022-10-06T03:02:33.921Z,4.57
2022-10-06T03:05:02.084Z,4.05
2022-10-06T03:07:30.203Z,4.00
2022-10-06T03:09:58.881Z,4.47
2022-10-06T03:12:28.201Z,3.38
2022-10-06T03:14:56.472Z,4.22
2022-10-06T03:17:24.590Z,4.13
2022-10-06T03:19:58.086Z,4.22
2022-10-06T03:22:26.925Z,3.65
2022-10-06T03:24:57.137Z,5.93
2022-10-06T03:27:25.986Z,3.72
2022-10-06T03:29:57.783Z,5.03
2022-10-06T03:32:27.902Z,4.35
2022-10-06T03:34:57.597Z,4.40
2022-10-06T03:37:25.878Z,3.83
2022-10-06T03:39:54.311Z,4.32
2022-10-06T03:42:22.679Z,5.97
2022-10-06T03:44:50.871Z,6.55
2022-10-06T03:47:19.309Z,6.80
2022-10-06T03:49:48.154Z,3.65
2022-10-06T03:52:23.631Z,3.80
2022-10-06T03:54:54.184Z,4.43
2022-10-06T03:57:23.124Z,4.68
2022-10-06T03:59:51.652Z,4.13
2022-10-06T04:02:19.813Z,3.30
2022-10-06T04:04:47.953Z,3.85
2022-10-06T04:07:16.065Z,3.67
2022-10-06T04:09:45.603Z,3.67
2022-10-06T04:12:14.567Z,4.03
2022-10-06T04:14:44.170Z,3.67
2022-10-06T04:17:12.232Z,5.57
2022-10-06T04:19:41.971Z,8.57
2022-10-06T04:22:10.089Z,6.60
2022-10-06T04:24:38.563Z,3.67
2022-10-06T04:27:25.568Z,4.07
2022-10-06T04:29:59.542Z,6.43
2022-10-06T04:32:29.389Z,3.85
2022-10-06T04:34:57.466Z,3.70
2022-10-06T04:37:28.326Z,3.53
2022-10-06T04:39:56.655Z,4.32
2022-10-06T04:42:27.367Z,3.40
2022-10-06T04:44:57.392Z,3.85
2022-10-06T04:47:25.489Z,3.80
2022-10-06T04:49:53.734Z,3.35
2022-10-06T04:52:22.957Z,2.90
2022-10-06T04:54:51.541Z,3.63
2022-10-06T04:57:19.585Z,3.70
2022-10-06T05:00:11.147Z,3.45
2022-10-06T05:02:43.037Z,4.68
2022-10-06T05:05:11.176Z,3.45
2022-10-06T05:07:39.297Z,4.20
2022-10-06T05:10:07.840Z,3.53
2022-10-06T05:12:36.021Z,3.33
2022-10-06T05:15:07.333Z,4.70
2022-10-06T05:17:35.479Z,3.88
2022-10-06T05:20:03.662Z,4.20
2022-10-06T05:22:32.405Z,3.55
2022-10-06T05:25:00.628Z,5.53
2022-10-06T05:27:29.171Z,5.95
2022-10-06T05:29:57.334Z,8.18
2022-10-06T05:32:31.426Z,7.88
2022-10-06T05:35:02.213Z,11.50
2022-10-06T05:37:30.305Z,16.38
2022-10-06T05:39:58.488Z,12.45
2022-10-06T05:42:29.707Z,21.80
2022-10-06T05:44:58.776Z,17.58
2022-10-06T05:47:28.341Z,25.42
2022-10-06T05:49:56.397Z,13.30
2022-10-06T05:52:24.597Z,17.48
2022-10-06T05:54:53.055Z,20.52
2022-10-06T05:57:21.142Z,18.95
2022-10-06T05:59:49.197Z,15.13
2022-10-06T06:02:17.642Z,19.33
2022-10-06T06:04:47.184Z,16.42
2022-10-06T06:07:15.245Z,12.13
2022-10-06T06:09:45.284Z,19.77
2022-10-06T06:12:14.293Z,21.70
2022-10-06T06:15:11.854Z,12.60
2022-10-06T06:17:48.484Z,16.80
2022-10-06T06:20:17.968Z,12.52
2022-10-06T06:22:46.168Z,12.20
2022-10-06T06:25:14.310Z,13.63
2022-10-06T06:27:44.542Z,11.35
2022-10-06T06:30:13.759Z,16.80
2022-10-06T06:32:42.253Z,12.90
2022-10-06T06:35:11.598Z,15.27
2022-10-06T06:37:41.194Z,11.45
2022-10-06T06:40:10.197Z,14.82
2022-10-06T06:42:40.251Z,12.52
2022-10-06T06:45:23.371Z,12.45
2022-10-06T06:48:15.453Z,10.27
2022-10-06T06:50:45.740Z,11.63
2022-10-06T06:53:16.431Z,11.15
2022-10-06T06:55:50.878Z,8.43
2022-10-06T06:58:19.998Z,7.90
2022-10-06T07:00:48.353Z,11.77
2022-10-06T07:03:32.852Z,9.32
2022-10-06T07:06:08.903Z,9.20
2022-10-06T07:08:39.339Z,23.95
2022-10-06T07:11:15.068Z,17.25
2022-10-06T07:13:44.448Z,31.40
2022-10-06T07:16:35.838Z,34.60
2022-10-06T07:19:24.832Z,27.08
2022-10-06T07:22:11.318Z,28.52
2022-10-06T07:24:59.758Z,33.70
2022-10-06T07:27:28.198Z,36.60
2022-10-06T07:29:56.897Z,39.13
2022-10-06T07:32:26.277Z,39.67
2022-10-06T07:34:55.497Z,36.15
2022-10-06T07:37:24.095Z,44.78
2022-10-06T07:39:53.797Z,42.85
2022-10-06T07:42:21.987Z,40.13
2022-10-06T07:47:41.037Z,32.50
2022-10-06T07:50:11.568Z,26.02
2022-10-06T07:52:40.133Z,26.98
2022-10-06T07:55:09.095Z,28.02
2022-10-06T07:57:45.956Z,25.48
2022-10-06T08:00:15.671Z,20.20
2022-10-06T08:02:45.178Z,27.60
2022-10-06T08:05:13.302Z,25.35
2022-10-06T08:07:41.903Z,25.92
2022-10-06T08:10:10.386Z,27.77
2022-10-06T08:12:40.227Z,28.40
2022-10-06T08:15:11.397Z,25.92
2022-10-06T08:17:39.510Z,20.52
2022-10-06T08:20:10.306Z,24.27
2022-10-06T08:22:38.752Z,21.42
2022-10-06T08:25:07.831Z,24.77
2022-10-06T08:27:36.140Z,18.75
2022-10-06T08:30:04.547Z,26.88
2022-10-06T08:32:32.913Z,22.20
2022-10-06T08:35:01.077Z,20.48
2022-10-06T08:37:30.577Z,17.95
2022-10-06T08:39:59.149Z,21.10
2022-10-06T08:42:32.815Z,19.58
2022-10-06T08:45:01.413Z,17.42
2022-10-06T08:47:30.270Z,17.45
2022-10-06T08:49:58.890Z,18.02
2022-10-06T08:52:41.279Z,16.02
2022-10-06T08:55:15.737Z,18.10
2022-10-06T08:57:47.164Z,12.90
2022-10-06T09:00:19.645Z,15.05
2022-10-06T09:02:50.527Z,16.45
2022-10-06T09:05:25.607Z,15.30
2022-10-06T09:08:17.813Z,16.80
2022-10-06T09:10:49.219Z,15.15
2022-10-06T09:13:21.931Z,13.93
2022-10-06T09:15:51.353Z,15.52
2022-10-06T09:18:22.236Z,14.48
2022-10-06T09:20:53.412Z,14.68
2022-10-06T09:23:43.072Z,15.30
2022-10-06T09:26:12.784Z,13.50
2022-10-06T09:28:40.926Z,15.48
2022-10-06T09:31:19.277Z,17.20
2022-10-06T09:33:47.415Z,15.52
2022-10-06T09:36:15.879Z,15.50
2022-10-06T09:38:53.950Z,10.82
2022-10-06T09:41:24.419Z,11.23
2022-10-06T09:43:57.399Z,12.52
2022-10-06T09:46:30.288Z,11.23
2022-10-06T09:49:18.568Z,13.63
2022-10-06T09:52:03.719Z,12.85
2022-10-06T09:54:34.771Z,15.30
2022-10-06T09:57:09.667Z,10.32
2022-10-06T09:59:42.015Z,13.68
2022-10-06T10:02:24.838Z,12.68
2022-10-06T10:04:54.715Z,11.30
2022-10-06T10:07:24.880Z,9.18
2022-10-06T10:09:55.036Z,11.82
2022-10-06T10:12:27.708Z,11.85
2022-10-06T10:14:57.783Z,9.77
2022-10-06T10:17:37.650Z,10.05
2022-10-06T10:20:09.374Z,10.70
2022-10-06T10:22:38.614Z,12.52
2022-10-06T10:25:13.962Z,10.57
2022-10-06T10:27:47.641Z,9.90
2022-10-06T10:30:15.980Z,8.65
2022-10-06T10:32:53.720Z,9.07
2022-10-06T10:35:24.293Z,9.98
2022-10-06T10:37:54.651Z,8.85
2022-10-06T10:40:29.766Z,9.68
2022-10-06T10:43:02.093Z,9.70
2022-10-06T10:45:34.010Z,10.38
2022-10-06T10:48:02.863Z,10.18
2022-10-06T10:50:33.123Z,8.15
2022-10-06T10:53:03.773Z,10.60
2022-10-06T10:55:35.834Z,8.07
2022-10-06T10:58:07.346Z,9.68
2022-10-06T11:00:37.022Z,8.18
2022-10-06T11:03:05.283Z,8.65
2022-10-06T11:05:58.294Z,9.40
2022-10-06T11:08:28.827Z,7.50
2022-10-06T11:10:59.026Z,9.02
2022-10-06T11:13:29.642Z,10.15
2022-10-06T11:16:06.074Z,7.88
2022-10-06T11:18:41.403Z,9.68
2022-10-06T11:21:12.415Z,8.25
2022-10-06T11:23:53.221Z,8.35
2022-10-06T11:26:31.977Z,10.43
2022-10-06T11:29:02.135Z,7.68
2022-10-06T11:31:32.737Z,9.32
2022-10-06T11:34:01.615Z,8.32
2022-10-06T11:36:35.643Z,9.77
2022-10-06T11:39:06.501Z,7.15
2022-10-06T11:41:38.368Z,7.82
2022-10-06T11:44:07.837Z,9.07
2022-10-06T11:46:41.280Z,9.73
2022-10-06T11:49:39.353Z,8.75
2022-10-06T11:52:35.905Z,10.05
2022-10-06T11:55:09.234Z,7.95
2022-10-06T11:57:42.004Z,11.55
2022-10-06T12:00:42.055Z,6.95
2022-10-06T12:03:56.143Z,8.85
2022-10-06T12:06:52.824Z,7.53
2022-10-06T12:09:51.982Z,7.55
2022-10-06T12:13:06.727Z,20.98
2022-10-06T12:18:48.777Z,33.25
2022-10-06T12:21:38.023Z,37.60
2022-10-06T12:24:18.148Z,19.17
2022-10-06T12:26:54.115Z,25.08
2022-10-06T12:29:29.730Z,21.52
2022-10-06T12:32:01.611Z,23.23
2022-10-06T12:34:43.219Z,21.63
2022-10-06T12:37:41.073Z,30.70
2022-10-06T12:40:44.165Z,21.17
2022-10-06T12:43:25.992Z,18.20
2022-10-06T12:45:58.710Z,20.10
2022-10-06T12:48:31.072Z,19.00
2022-10-06T12:51:00.823Z,19.02
2022-10-06T12:53:32.442Z,17.60
2022-10-06T12:56:02.756Z,16.98
2022-10-06T12:58:32.528Z,16.83
2022-10-06T13:01:02.719Z,13.35
2022-10-06T13:03:30.849Z,14.18
2022-10-06T13:06:00.913Z,13.57
2022-10-06T13:08:29.726Z,11.48
2022-10-06T13:11:14.721Z,12.00
2022-10-06T13:13:47.504Z,14.45
2022-10-06T13:16:17.198Z,11.45
2022-10-06T13:18:45.315Z,11.30
2022-10-06T13:21:14.204Z,12.80
2022-10-06T13:23:42.241Z,12.32
2022-10-06T13:26:19.284Z,11.88
2022-10-06T13:28:48.136Z,11.18
2022-10-06T13:31:22.109Z,15.43
2022-10-06T13:33:51.977Z,10.77
2022-10-06T13:36:20.657Z,16.13
2022-10-06T13:38:48.687Z,10.85
2022-10-06T13:41:22.961Z,10.65
2022-10-06T13:43:52.451Z,11.95
2022-10-06T13:46:22.993Z,9.30
2022-10-06T13:48:52.371Z,14.40
2022-10-06T13:51:21.665Z,10.82
2022-10-06T13:53:49.881Z,11.95
2022-10-06T13:58:57.432Z,11.20
2022-10-06T14:01:32.955Z,10.98
2022-10-06T14:04:13.879Z,9.43
2022-10-06T14:06:47.697Z,10.63
2022-10-06T14:09:21.261Z,10.20
2022-10-06T14:11:49.375Z,11.60
2022-10-06T14:14:18.049Z,10.18
2022-10-06T14:16:49.927Z,8.55
2022-10-06T14:19:35.151Z,11.27
2022-10-06T14:22:03.657Z,15.68
2022-10-06T14:24:34.205Z,12.50
2022-10-06T14:27:03.005Z,11.77
2022-10-06T14:29:31.705Z,9.57
2022-10-06T14:32:09.875Z,8.80
2022-10-06T14:34:38.983Z,10.70
2022-10-06T14:37:07.061Z,9.40
2022-10-06T14:39:35.218Z,13.02
2022-10-06T14:42:03.447Z,12.00
2022-10-06T14:44:31.506Z,10.77
2022-10-06T14:46:59.556Z,9.82
2022-10-06T14:49:29.023Z,7.40
2022-10-06T14:51:57.644Z,9.27
2022-10-06T14:54:25.743Z,9.68
2022-10-06T14:56:54.141Z,10.13
2022-10-06T14:59:22.708Z,10.30
2022-10-06T15:01:50.766Z,10.70
2022-10-06T15:04:20.250Z,10.48
2022-10-06T15:07:07.440Z,10.68
2022-10-06T15:09:35.731Z,10.43
2022-10-06T15:12:03.824Z,11.93
2022-10-06T15:14:32.085Z,11.93
2022-10-06T15:17:00.487Z,10.05
2022-10-06T15:19:28.637Z,9.60
2022-10-06T15:21:58.040Z,10.25
2022-10-06T15:24:26.148Z,9.23
2022-10-06T15:27:11.571Z,8.00
2022-10-06T15:29:39.651Z,8.93
2022-10-06T15:32:08.250Z,7.68
2022-10-06T15:34:37.628Z,9.20
2022-10-06T15:37:07.095Z,9.07
2022-10-06T15:39:36.498Z,9.60
2022-10-06T15:42:05.030Z,16.20
2022-10-06T15:44:34.556Z,11.82
2022-10-06T15:47:02.805Z,12.82
2022-10-06T15:49:32.724Z,13.10
2022-10-06T15:52:02.729Z,10.02
2022-10-06T15:54:33.691Z,7.47
2022-10-06T15:57:02.530Z,11.27
2022-10-06T15:59:32.730Z,12.20
2022-10-06T16:02:03.347Z,17.63
2022-10-06T16:04:35.783Z,8.50
2022-10-06T16:07:03.978Z,9.07
2022-10-06T16:09:38.144Z,11.27
2022-10-06T16:12:09.283Z,8.00
2022-10-06T16:14:37.394Z,17.60
2022-10-06T16:17:05.890Z,16.25
2022-10-06T16:19:36.698Z,14.82
2022-10-06T16:22:04.991Z,13.40
2022-10-06T16:24:34.501Z,11.55
2022-10-06T16:27:02.551Z,16.02
2022-10-06T16:29:30.653Z,10.57
2022-10-06T16:31:59.105Z,17.40
2022-10-06T16:34:27.582Z,11.77
2022-10-06T16:36:55.630Z,12.45
2022-10-06T16:39:23.769Z,17.55
2022-10-06T16:41:54.049Z,12.50
2022-10-06T16:44:22.113Z,11.52
2022-10-06T16:46:50.255Z,8.82
2022-10-06T16:49:18.403Z,11.48
2022-10-06T16:51:46.823Z,11.43
2022-10-06T16:54:16.998Z,6.45
2022-10-06T16:56:45.948Z,6.72
2022-10-06T16:59:16.243Z,7.93
2022-10-06T17:01:44.450Z,10.48
2022-10-06T17:04:13.584Z,6.53
2022-10-06T17:06:43.344Z,8.40
2022-10-06T17:09:14.450Z,13.23
2022-10-06T17:11:42.658Z,10.27
2022-10-06T17:14:10.744Z,8.40
2022-10-06T17:16:41.318Z,15.90
2022-10-06T17:19:10.373Z,8.07
2022-10-06T17:21:48.002Z,12.55
2022-10-06T17:24:18.113Z,8.27
2022-10-06T17:26:47.720Z,11.43
2022-10-06T17:29:17.491Z,9.70
2022-10-06T17:31:47.065Z,9.35
2022-10-06T17:34:20.372Z,5.78
2022-10-06T17:36:49.424Z,6.43
2022-10-06T17:39:18.174Z,7.07
2022-10-06T17:41:46.573Z,5.60
2022-10-06T17:44:22.406Z,6.68
2022-10-06T17:46:53.155Z,6.38
2022-10-06T17:49:21.993Z,12.20
2022-10-06T17:51:50.400Z,8.85
2022-10-06T17:54:20.025Z,10.30
2022-10-06T17:56:48.533Z,6.88
2022-10-06T17:59:17.857Z,7.63
2022-10-06T18:01:45.971Z,6.05
2022-10-06T18:04:16.507Z,14.93
2022-10-06T18:06:45.044Z,6.22
2022-10-06T18:09:13.166Z,6.47
2022-10-06T18:11:43.170Z,6.53
2022-10-06T18:14:12.422Z,6.03
2022-10-06T18:16:41.968Z,7.60
2022-10-06T18:19:10.796Z,8.15
2022-10-06T18:21:40.768Z,6.75
2022-10-06T18:24:11.061Z,9.23
2022-10-06T18:26:40.465Z,7.18
2022-10-06T18:29:09.049Z,9.73
2022-10-06T18:31:37.390Z,9.05
2022-10-06T18:36:55.094Z,11.68
2022-10-06T18:39:23.227Z,12.43
2022-10-06T18:41:51.866Z,9.80
2022-10-06T18:44:39.940Z,12.27
2022-10-06T18:47:25.754Z,14.07
2022-10-06T18:49:54.032Z,13.88
2022-10-06T18:52:23.503Z,12.57
2022-10-06T18:54:51.551Z,11.43
2022-10-06T18:57:23.785Z,14.48
2022-10-06T18:59:55.106Z,14.27
2022-10-06T19:02:23.344Z,11.13
2022-10-06T19:04:52.040Z,15.55
2022-10-06T19:07:20.141Z,11.98
2022-10-06T19:09:50.099Z,13.57
2022-10-06T19:12:18.415Z,11.30
2022-10-06T19:14:47.802Z,12.27
2022-10-06T19:17:16.190Z,10.48
2022-10-06T19:19:45.285Z,13.07
2022-10-06T19:22:14.323Z,10.55
2022-10-06T19:24:43.776Z,11.70
2022-10-06T19:27:15.222Z,15.07
2022-10-06T19:29:46.106Z,12.43
2022-10-06T19:32:15.479Z,10.65
2022-10-06T19:34:43.909Z,17.42
2022-10-06T19:37:12.380Z,11.77
2022-10-06T19:39:42.852Z,15.52
2022-10-06T19:42:29.262Z,13.82
2022-10-06T19:44:59.162Z,13.07
2022-10-06T19:47:28.172Z,13.30
2022-10-06T19:50:00.824Z,14.15
2022-10-06T19:52:32.215Z,16.13
2022-10-06T19:55:00.798Z,13.30
2022-10-06T19:57:29.321Z,14.77
2022-10-06T19:59:58.924Z,15.88
2022-10-06T20:02:28.642Z,15.95
2022-10-06T20:04:56.961Z,16.63
2022-10-06T20:07:27.592Z,14.43
2022-10-06T20:09:56.041Z,14.23
2022-10-06T20:12:25.490Z,11.63
2022-10-06T20:14:53.981Z,17.08
2022-10-06T20:17:23.502Z,12.63
2022-10-06T20:19:57.350Z,14.65
2022-10-06T20:22:26.418Z,10.48
2022-10-06T20:24:54.539Z,13.95
2022-10-06T20:27:22.601Z,18.02
2022-10-06T20:29:50.739Z,13.75
2022-10-06T20:32:18.957Z,13.68
2022-10-06T20:34:48.580Z,13.60
2022-10-06T20:37:16.750Z,13.07
2022-10-06T20:40:02.288Z,15.10
2022-10-06T20:42:31.419Z,14.50
2022-10-06T20:44:59.669Z,10.55
2022-10-06T20:47:27.878Z,13.38
2022-10-06T20:49:57.416Z,11.10
2022-10-06T20:52:25.543Z,11.20
2022-10-06T20:54:53.710Z,11.70
2022-10-06T20:57:21.802Z,26.17
2022-10-06T20:59:49.949Z,11.68
2022-10-06T21:02:18.119Z,11.65
2022-10-06T21:04:46.293Z,11.00
2022-10-06T21:07:15.793Z,10.93
2022-10-06T21:09:47.502Z,10.93
2022-10-06T21:12:19.976Z,10.07
2022-10-06T21:14:48.399Z,11.23
2022-10-06T21:17:16.580Z,14.77
2022-10-06T21:19:44.821Z,12.38
2022-10-06T21:22:13.033Z,9.27
2022-10-06T21:24:42.456Z,10.55
2022-10-06T21:27:10.681Z,11.20
2022-10-06T21:29:39.057Z,11.68
2022-10-06T21:32:10.078Z,12.60
2022-10-06T21:34:40.285Z,16.40
2022-10-06T21:37:08.447Z,10.57
2022-10-06T21:39:36.644Z,14.00
2022-10-06T21:42:06.337Z,11.60
2022-10-06T21:44:34.519Z,11.30
2022-10-06T21:47:03.110Z,11.93
2022-10-06T21:49:31.378Z,12.50
2022-10-06T21:52:03.607Z,18.60
2022-10-06T21:54:31.912Z,14.05
2022-10-06T21:57:00.214Z,10.13
2022-10-06T21:59:29.717Z,16.00
2022-10-06T22:01:58.072Z,8.75
2022-10-06T22:04:26.231Z,10.70
2022-10-06T22:06:54.304Z,11.75
2022-10-06T22:09:22.581Z,9.48
2022-10-06T22:11:50.644Z,9.85
2022-10-06T22:14:19.600Z,11.60
2022-10-06T22:16:49.152Z,10.43
2022-10-06T22:19:17.957Z,11.35
2022-10-06T22:21:47.226Z,11.10
2022-10-06T22:24:17.113Z,9.75
2022-10-06T22:26:45.204Z,8.27
2022-10-06T22:29:14.232Z,11.95
2022-10-06T22:31:43.330Z,7.93
2022-10-06T22:34:13.933Z,12.07
2022-10-06T22:36:42.019Z,8.60
2022-10-06T22:39:10.184Z,8.82
2022-10-06T22:41:38.314Z,8.68
2022-10-06T22:44:06.432Z,9.73
2022-10-06T22:46:35.709Z,9.70
2022-10-06T22:49:04.023Z,8.98
2022-10-06T22:51:33.607Z,8.30
2022-10-06T22:54:01.732Z,11.85
2022-10-06T22:56:31.384Z,8.57
2022-10-06T22:59:03.279Z,7.45
2022-10-06T23:01:31.542Z,10.02
2022-10-06T23:03:59.689Z,8.55
2022-10-06T23:06:29.692Z,8.85
2022-10-06T23:08:59.628Z,7.95
2022-10-06T23:11:27.831Z,9.60
2022-10-06T23:13:55.939Z,8.20
2022-10-06T23:16:24.087Z,9.27
2022-10-06T23:18:52.193Z,10.38
2022-10-06T23:21:22.525Z,7.22
2022-10-06T23:23:51.949Z,11.43
2022-10-06T23:26:21.785Z,7.90
2022-10-06T23:28:52.393Z,7.95
2022-10-06T23:31:20.550Z,7.82
2022-10-06T23:33:49.155Z,8.43
2022-10-06T23:36:17.740Z,10.55
2022-10-06T23:38:45.862Z,8.65
2022-10-06T23:41:13.932Z,7.95
2022-10-06T23:43:43.462Z,10.85
2022-10-06T23:46:11.593Z,9.27
2022-10-06T23:48:39.708Z,7.28
2022-10-06T23:51:09.218Z,6.97
2022-10-06T23:53:37.363Z,8.52
2022-10-06T23:56:05.987Z,7.72
2022-10-06T23:58:34.056Z,7.18
